sensor_id;sensor_type;location;lat;lon;timestamp;temperature;humidity
15156;DHT22;7678;50.058;8.306;2023-03-29T00:00:05;6.00;99.90
15156;DHT22;7678;50.058;8.306;2023-03-29T00:02:37;6.00;99.90
15156;DHT22;7678;50.058;8.306;2023-03-29T00:05:07;6.00;99.90
15156;DHT22;7678;50.058;8.306;2023-03-29T00:07:35;6.00;99.90
15156;DHT22;7678;50.058;8.306;2023-03-29T00:10:04;6.00;99.90
15156;DHT22;7678;50.058;8.306;2023-03-29T00:12:33;6.00;99.90
15156;DHT22;7678;50.058;8.306;2023-03-29T00:15:02;6.00;99.90
15156;DHT22;7678;50.058;8.306;2023-03-29T00:17:30;6.00;99.90
15156;DHT22;7678;50.058;8.306;2023-03-29T00:20:00;6.00;99.90
15156;DHT22;7678;50.058;8.306;2023-03-29T00:22:28;6.00;99.90
15156;DHT22;7678;50.058;8.306;2023-03-29T00:24:57;6.00;99.90
15156;DHT22;7678;50.058;8.306;2023-03-29T00:27:25;5.90;99.90
15156;DHT22;7678;50.058;8.306;2023-03-29T00:29:53;5.80;99.90
15156;DHT22;7678;50.058;8.306;2023-03-29T00:32:22;5.80;99.90
15156;DHT22;7678;50.058;8.306;2023-03-29T00:34:50;5.90;99.90
15156;DHT22;7678;50.058;8.306;2023-03-29T00:37:19;5.90;99.90
15156;DHT22;7678;50.058;8.306;2023-03-29T00:39:48;5.80;99.90
15156;DHT22;7678;50.058;8.306;2023-03-29T00:42:16;5.80;99.90
15156;DHT22;7678;50.058;8.306;2023-03-29T00:45:03;5.80;99.90
15156;DHT22;7678;50.058;8.306;2023-03-29T00:47:36;5.80;99.90
15156;DHT22;7678;50.058;8.306;2023-03-29T00:50:09;5.80;99.90
15156;DHT22;7678;50.058;8.306;2023-03-29T00:52:45;5.70;99.90
15156;DHT22;7678;50.058;8.306;2023-03-29T00:55:19;5.70;99.90
15156;DHT22;7678;50.058;8.306;2023-03-29T00:57:50;5.70;99.90
15156;DHT22;7678;50.058;8.306;2023-03-29T01:00:25;5.60;99.90
15156;DHT22;7678;50.058;8.306;2023-03-29T01:02:56;5.60;99.90
15156;DHT22;7678;50.058;8.306;2023-03-29T01:05:29;5.70;99.90
15156;DHT22;7678;50.058;8.306;2023-03-29T01:08:03;5.70;99.90
15156;DHT22;7678;50.058;8.306;2023-03-29T01:10:34;5.70;99.90
15156;DHT22;7678;50.058;8.306;2023-03-29T01:13:09;5.60;99.90
15156;DHT22;7678;50.058;8.306;2023-03-29T01:15:41;5.50;99.90
15156;DHT22;7678;50.058;8.306;2023-03-29T01:18:10;5.60;99.90
15156;DHT22;7678;50.058;8.306;2023-03-29T01:20:49;5.60;99.90
15156;DHT22;7678;50.058;8.306;2023-03-29T01:23:37;5.60;99.90
15156;DHT22;7678;50.058;8.306;2023-03-29T01:26:20;5.70;99.90
15156;DHT22;7678;50.058;8.306;2023-03-29T01:28:56;5.70;99.90
15156;DHT22;7678;50.058;8.306;2023-03-29T01:31:28;5.80;99.90
15156;DHT22;7678;50.058;8.306;2023-03-29T01:34:00;5.60;99.90
15156;DHT22;7678;50.058;8.306;2023-03-29T01:36:34;5.60;99.90
15156;DHT22;7678;50.058;8.306;2023-03-29T01:39:05;5.60;99.90
15156;DHT22;7678;50.058;8.306;2023-03-29T01:41:40;5.60;99.90
15156;DHT22;7678;50.058;8.306;2023-03-29T01:44:15;5.60;99.90
15156;DHT22;7678;50.058;8.306;2023-03-29T01:46:45;5.70;99.90
15156;DHT22;7678;50.058;8.306;2023-03-29T01:49:17;5.60;99.90
15156;DHT22;7678;50.058;8.306;2023-03-29T01:51:52;5.60;99.90
15156;DHT22;7678;50.058;8.306;2023-03-29T01:54:25;5.60;99.90
15156;DHT22;7678;50.058;8.306;2023-03-29T01:56:55;5.60;99.90
15156;DHT22;7678;50.058;8.306;2023-03-29T01:59:27;5.60;99.90
15156;DHT22;7678;50.058;8.306;2023-03-29T02:02:08;5.70;99.90
15156;DHT22;7678;50.058;8.306;2023-03-29T02:04:43;5.70;99.90
15156;DHT22;7678;50.058;8.306;2023-03-29T02:07:14;5.70;99.90
15156;DHT22;7678;50.058;8.306;2023-03-29T02:09:44;5.70;99.90
15156;DHT22;7678;50.058;8.306;2023-03-29T02:12:14;5.70;99.90
15156;DHT22;7678;50.058;8.306;2023-03-29T02:14:45;5.70;99.90
15156;DHT22;7678;50.058;8.306;2023-03-29T02:17:17;5.60;99.90
15156;DHT22;7678;50.058;8.306;2023-03-29T02:19:48;5.70;99.90
15156;DHT22;7678;50.058;8.306;2023-03-29T02:22:23;5.70;99.90
15156;DHT22;7678;50.058;8.306;2023-03-29T02:24:55;5.60;99.90
15156;DHT22;7678;50.058;8.306;2023-03-29T02:27:25;5.70;99.90
15156;DHT22;7678;50.058;8.306;2023-03-29T02:29:56;5.70;99.90
15156;DHT22;7678;50.058;8.306;2023-03-29T02:32:30;5.70;99.90
15156;DHT22;7678;50.058;8.306;2023-03-29T02:35:05;5.80;99.90
15156;DHT22;7678;50.058;8.306;2023-03-29T02:37:36;5.80;99.90
15156;DHT22;7678;50.058;8.306;2023-03-29T02:40:07;5.80;99.90
15156;DHT22;7678;50.058;8.306;2023-03-29T02:42:39;5.70;99.90
15156;DHT22;7678;50.058;8.306;2023-03-29T02:45:12;5.70;99.90
15156;DHT22;7678;50.058;8.306;2023-03-29T02:47:45;5.70;99.90
15156;DHT22;7678;50.058;8.306;2023-03-29T02:50:15;5.80;99.90
15156;DHT22;7678;50.058;8.306;2023-03-29T02:52:51;5.80;99.90
15156;DHT22;7678;50.058;8.306;2023-03-29T02:55:22;5.70;99.90
15156;DHT22;7678;50.058;8.306;2023-03-29T02:57:51;5.70;99.90
15156;DHT22;7678;50.058;8.306;2023-03-29T03:00:21;5.70;99.90
15156;DHT22;7678;50.058;8.306;2023-03-29T03:02:49;5.70;99.90
15156;DHT22;7678;50.058;8.306;2023-03-29T03:05:18;5.70;99.90
15156;DHT22;7678;50.058;8.306;2023-03-29T03:07:46;5.70;99.90
15156;DHT22;7678;50.058;8.306;2023-03-29T03:10:14;5.60;99.90
15156;DHT22;7678;50.058;8.306;2023-03-29T03:12:42;5.50;99.90
15156;DHT22;7678;50.058;8.306;2023-03-29T03:15:10;5.50;99.90
15156;DHT22;7678;50.058;8.306;2023-03-29T03:17:40;5.40;99.90
15156;DHT22;7678;50.058;8.306;2023-03-29T03:20:10;5.40;99.90
15156;DHT22;7678;50.058;8.306;2023-03-29T03:22:40;5.40;99.90
15156;DHT22;7678;50.058;8.306;2023-03-29T03:25:08;5.50;99.90
15156;DHT22;7678;50.058;8.306;2023-03-29T03:27:37;5.50;99.90
15156;DHT22;7678;50.058;8.306;2023-03-29T03:30:06;5.40;99.90
15156;DHT22;7678;50.058;8.306;2023-03-29T03:32:35;5.40;99.90
15156;DHT22;7678;50.058;8.306;2023-03-29T03:35:05;5.50;99.90
15156;DHT22;7678;50.058;8.306;2023-03-29T03:37:34;5.60;99.90
15156;DHT22;7678;50.058;8.306;2023-03-29T03:40:05;5.50;99.90
15156;DHT22;7678;50.058;8.306;2023-03-29T03:42:40;5.40;99.90
15156;DHT22;7678;50.058;8.306;2023-03-29T03:45:09;5.40;99.90
15156;DHT22;7678;50.058;8.306;2023-03-29T03:47:38;5.40;99.90
15156;DHT22;7678;50.058;8.306;2023-03-29T03:50:09;5.40;99.90
15156;DHT22;7678;50.058;8.306;2023-03-29T03:52:37;5.40;99.90
15156;DHT22;7678;50.058;8.306;2023-03-29T03:55:06;5.40;99.90
15156;DHT22;7678;50.058;8.306;2023-03-29T03:57:39;5.40;99.90
15156;DHT22;7678;50.058;8.306;2023-03-29T04:00:08;5.40;99.90
15156;DHT22;7678;50.058;8.306;2023-03-29T04:02:46;5.50;99.90
15156;DHT22;7678;50.058;8.306;2023-03-29T04:05:16;5.40;99.90
15156;DHT22;7678;50.058;8.306;2023-03-29T04:07:48;5.50;99.90
15156;DHT22;7678;50.058;8.306;2023-03-29T04:10:16;5.50;99.90
15156;DHT22;7678;50.058;8.306;2023-03-29T04:12:44;5.50;99.90
15156;DHT22;7678;50.058;8.306;2023-03-29T04:15:12;5.50;99.90
15156;DHT22;7678;50.058;8.306;2023-03-29T04:17:40;5.50;99.90
15156;DHT22;7678;50.058;8.306;2023-03-29T04:20:09;5.50;99.90
15156;DHT22;7678;50.058;8.306;2023-03-29T04:22:40;5.50;99.90
15156;DHT22;7678;50.058;8.306;2023-03-29T04:25:08;5.50;99.90
15156;DHT22;7678;50.058;8.306;2023-03-29T04:27:37;5.50;99.90
15156;DHT22;7678;50.058;8.306;2023-03-29T04:30:06;5.50;99.90
15156;DHT22;7678;50.058;8.306;2023-03-29T04:32:35;5.60;99.90
15156;DHT22;7678;50.058;8.306;2023-03-29T04:35:04;5.60;99.90
15156;DHT22;7678;50.058;8.306;2023-03-29T04:37:32;5.50;99.90
15156;DHT22;7678;50.058;8.306;2023-03-29T04:40:01;5.50;99.90
15156;DHT22;7678;50.058;8.306;2023-03-29T04:42:34;5.50;99.90
15156;DHT22;7678;50.058;8.306;2023-03-29T04:45:03;5.50;99.90
15156;DHT22;7678;50.058;8.306;2023-03-29T04:47:33;5.50;99.90
15156;DHT22;7678;50.058;8.306;2023-03-29T04:50:02;5.50;99.90
15156;DHT22;7678;50.058;8.306;2023-03-29T04:52:30;5.60;99.90
15156;DHT22;7678;50.058;8.306;2023-03-29T04:55:00;5.60;99.90
15156;DHT22;7678;50.058;8.306;2023-03-29T04:57:28;5.60;99.90
15156;DHT22;7678;50.058;8.306;2023-03-29T04:59:57;5.60;99.90
15156;DHT22;7678;50.058;8.306;2023-03-29T05:02:25;5.70;99.90
15156;DHT22;7678;50.058;8.306;2023-03-29T05:04:53;5.70;99.90
15156;DHT22;7678;50.058;8.306;2023-03-29T05:07:21;5.60;99.90
15156;DHT22;7678;50.058;8.306;2023-03-29T05:09:49;5.60;99.90
15156;DHT22;7678;50.058;8.306;2023-03-29T05:12:19;5.60;99.90
15156;DHT22;7678;50.058;8.306;2023-03-29T05:14:47;5.60;99.90
15156;DHT22;7678;50.058;8.306;2023-03-29T05:17:15;5.60;99.90
15156;DHT22;7678;50.058;8.306;2023-03-29T05:19:43;5.60;99.90
15156;DHT22;7678;50.058;8.306;2023-03-29T05:22:11;5.60;99.90
15156;DHT22;7678;50.058;8.306;2023-03-29T05:24:40;5.60;99.90
15156;DHT22;7678;50.058;8.306;2023-03-29T05:27:09;5.60;99.90
15156;DHT22;7678;50.058;8.306;2023-03-29T05:29:38;5.60;99.90
15156;DHT22;7678;50.058;8.306;2023-03-29T05:32:07;5.60;99.90
15156;DHT22;7678;50.058;8.306;2023-03-29T05:34:35;5.60;99.90
15156;DHT22;7678;50.058;8.306;2023-03-29T05:37:04;5.70;99.90
15156;DHT22;7678;50.058;8.306;2023-03-29T05:39:32;5.80;99.90
15156;DHT22;7678;50.058;8.306;2023-03-29T05:42:03;5.80;99.90
15156;DHT22;7678;50.058;8.306;2023-03-29T05:44:32;5.90;99.90
15156;DHT22;7678;50.058;8.306;2023-03-29T05:47:01;5.80;99.90
15156;DHT22;7678;50.058;8.306;2023-03-29T05:49:29;5.80;99.90
15156;DHT22;7678;50.058;8.306;2023-03-29T05:51:57;5.90;99.90
15156;DHT22;7678;50.058;8.306;2023-03-29T05:54:25;6.00;99.90
15156;DHT22;7678;50.058;8.306;2023-03-29T05:56:53;6.10;99.90
15156;DHT22;7678;50.058;8.306;2023-03-29T05:59:22;6.20;99.90
15156;DHT22;7678;50.058;8.306;2023-03-29T06:01:50;6.20;99.90
15156;DHT22;7678;50.058;8.306;2023-03-29T06:04:20;6.30;99.90
15156;DHT22;7678;50.058;8.306;2023-03-29T06:06:48;6.40;99.90
15156;DHT22;7678;50.058;8.306;2023-03-29T06:09:16;6.50;99.90
15156;DHT22;7678;50.058;8.306;2023-03-29T06:11:46;6.50;99.90
15156;DHT22;7678;50.058;8.306;2023-03-29T06:14:14;6.50;99.90
15156;DHT22;7678;50.058;8.306;2023-03-29T06:16:43;6.50;99.90
15156;DHT22;7678;50.058;8.306;2023-03-29T06:19:12;6.50;99.90
15156;DHT22;7678;50.058;8.306;2023-03-29T06:21:42;6.50;99.90
15156;DHT22;7678;50.058;8.306;2023-03-29T06:24:11;6.50;99.90
15156;DHT22;7678;50.058;8.306;2023-03-29T06:26:41;6.50;99.90
15156;DHT22;7678;50.058;8.306;2023-03-29T06:29:10;6.60;99.90
15156;DHT22;7678;50.058;8.306;2023-03-29T06:31:38;6.60;99.90
15156;DHT22;7678;50.058;8.306;2023-03-29T06:34:06;6.60;99.90
15156;DHT22;7678;50.058;8.306;2023-03-29T06:36:34;6.70;99.90
15156;DHT22;7678;50.058;8.306;2023-03-29T06:39:04;6.70;99.90
15156;DHT22;7678;50.058;8.306;2023-03-29T06:41:34;6.70;99.90
15156;DHT22;7678;50.058;8.306;2023-03-29T06:44:02;6.80;99.90
15156;DHT22;7678;50.058;8.306;2023-03-29T06:46:30;6.80;99.90
15156;DHT22;7678;50.058;8.306;2023-03-29T06:48:58;6.80;99.90
15156;DHT22;7678;50.058;8.306;2023-03-29T06:51:27;6.70;99.90
15156;DHT22;7678;50.058;8.306;2023-03-29T06:53:55;6.70;99.90
15156;DHT22;7678;50.058;8.306;2023-03-29T06:56:25;6.90;99.90
15156;DHT22;7678;50.058;8.306;2023-03-29T06:58:53;6.90;99.90
15156;DHT22;7678;50.058;8.306;2023-03-29T07:01:21;7.00;99.90
15156;DHT22;7678;50.058;8.306;2023-03-29T07:03:50;7.00;99.90
15156;DHT22;7678;50.058;8.306;2023-03-29T07:06:18;7.10;99.90
15156;DHT22;7678;50.058;8.306;2023-03-29T07:08:48;7.20;99.90
15156;DHT22;7678;50.058;8.306;2023-03-29T07:11:18;7.40;99.90
15156;DHT22;7678;50.058;8.306;2023-03-29T07:13:48;7.40;99.90
15156;DHT22;7678;50.058;8.306;2023-03-29T07:16:16;7.40;99.90
15156;DHT22;7678;50.058;8.306;2023-03-29T07:18:45;7.50;99.90
15156;DHT22;7678;50.058;8.306;2023-03-29T07:21:13;7.60;99.90
15156;DHT22;7678;50.058;8.306;2023-03-29T07:23:41;7.60;99.90
15156;DHT22;7678;50.058;8.306;2023-03-29T07:26:10;7.60;99.90
15156;DHT22;7678;50.058;8.306;2023-03-29T07:28:38;7.80;99.90
15156;DHT22;7678;50.058;8.306;2023-03-29T07:31:09;7.80;99.90
15156;DHT22;7678;50.058;8.306;2023-03-29T07:33:37;7.70;99.90
15156;DHT22;7678;50.058;8.306;2023-03-29T07:36:07;7.60;99.90
15156;DHT22;7678;50.058;8.306;2023-03-29T07:38:36;7.60;99.90
15156;DHT22;7678;50.058;8.306;2023-03-29T07:41:06;7.70;99.90
15156;DHT22;7678;50.058;8.306;2023-03-29T07:43:34;7.70;99.90
15156;DHT22;7678;50.058;8.306;2023-03-29T07:46:04;7.80;99.90
15156;DHT22;7678;50.058;8.306;2023-03-29T07:48:34;8.00;99.90
15156;DHT22;7678;50.058;8.306;2023-03-29T07:51:04;8.30;99.90
15156;DHT22;7678;50.058;8.306;2023-03-29T07:53:33;8.40;99.90
15156;DHT22;7678;50.058;8.306;2023-03-29T07:56:06;8.40;99.90
15156;DHT22;7678;50.058;8.306;2023-03-29T07:58:35;8.20;99.90
15156;DHT22;7678;50.058;8.306;2023-03-29T08:01:07;7.90;99.90
15156;DHT22;7678;50.058;8.306;2023-03-29T08:03:42;7.90;99.90
15156;DHT22;7678;50.058;8.306;2023-03-29T08:06:11;8.00;99.90
15156;DHT22;7678;50.058;8.306;2023-03-29T08:08:39;8.20;99.90
15156;DHT22;7678;50.058;8.306;2023-03-29T08:11:07;8.30;99.90
15156;DHT22;7678;50.058;8.306;2023-03-29T08:13:37;8.30;99.90
15156;DHT22;7678;50.058;8.306;2023-03-29T08:16:06;8.40;99.90
15156;DHT22;7678;50.058;8.306;2023-03-29T08:18:35;8.50;99.90
15156;DHT22;7678;50.058;8.306;2023-03-29T08:21:11;8.70;99.90
15156;DHT22;7678;50.058;8.306;2023-03-29T08:23:41;9.10;99.90
15156;DHT22;7678;50.058;8.306;2023-03-29T08:26:12;9.10;99.90
15156;DHT22;7678;50.058;8.306;2023-03-29T08:28:42;9.00;99.90
15156;DHT22;7678;50.058;8.306;2023-03-29T08:31:10;9.10;99.90
15156;DHT22;7678;50.058;8.306;2023-03-29T08:33:39;9.20;99.90
15156;DHT22;7678;50.058;8.306;2023-03-29T08:36:09;9.00;99.90
15156;DHT22;7678;50.058;8.306;2023-03-29T08:38:39;9.00;99.90
15156;DHT22;7678;50.058;8.306;2023-03-29T08:41:22;9.10;99.90
15156;DHT22;7678;50.058;8.306;2023-03-29T08:44:00;9.30;99.90
15156;DHT22;7678;50.058;8.306;2023-03-29T08:46:38;9.60;99.90
15156;DHT22;7678;50.058;8.306;2023-03-29T08:49:09;9.80;99.90
15156;DHT22;7678;50.058;8.306;2023-03-29T08:51:44;9.50;99.90
15156;DHT22;7678;50.058;8.306;2023-03-29T08:54:15;9.50;99.90
15156;DHT22;7678;50.058;8.306;2023-03-29T08:56:45;9.40;99.90
15156;DHT22;7678;50.058;8.306;2023-03-29T08:59:22;9.30;99.90
15156;DHT22;7678;50.058;8.306;2023-03-29T09:01:54;9.50;99.90
15156;DHT22;7678;50.058;8.306;2023-03-29T09:04:25;9.90;99.90
15156;DHT22;7678;50.058;8.306;2023-03-29T09:06:55;10.10;99.90
15156;DHT22;7678;50.058;8.306;2023-03-29T09:09:30;9.80;99.90
15156;DHT22;7678;50.058;8.306;2023-03-29T09:12:08;10.10;99.90
15156;DHT22;7678;50.058;8.306;2023-03-29T09:14:52;10.30;99.90
15156;DHT22;7678;50.058;8.306;2023-03-29T09:17:33;10.30;99.90
15156;DHT22;7678;50.058;8.306;2023-03-29T09:20:11;10.20;99.90
15156;DHT22;7678;50.058;8.306;2023-03-29T09:22:47;10.10;99.90
15156;DHT22;7678;50.058;8.306;2023-03-29T09:25:21;10.20;99.90
15156;DHT22;7678;50.058;8.306;2023-03-29T09:27:58;10.20;99.90
15156;DHT22;7678;50.058;8.306;2023-03-29T09:30:31;10.30;99.90
15156;DHT22;7678;50.058;8.306;2023-03-29T09:33:07;10.60;99.90
15156;DHT22;7678;50.058;8.306;2023-03-29T09:35:43;10.70;99.60
15156;DHT22;7678;50.058;8.306;2023-03-29T09:38:16;10.50;99.90
15156;DHT22;7678;50.058;8.306;2023-03-29T09:40:49;10.20;99.90
15156;DHT22;7678;50.058;8.306;2023-03-29T09:43:28;10.40;99.90
15156;DHT22;7678;50.058;8.306;2023-03-29T09:45:59;10.20;99.90
15156;DHT22;7678;50.058;8.306;2023-03-29T09:48:33;10.30;99.90
15156;DHT22;7678;50.058;8.306;2023-03-29T09:51:05;10.70;99.90
15156;DHT22;7678;50.058;8.306;2023-03-29T09:53:36;10.60;99.90
15156;DHT22;7678;50.058;8.306;2023-03-29T09:56:06;10.60;99.90
15156;DHT22;7678;50.058;8.306;2023-03-29T09:58:34;10.70;99.90
15156;DHT22;7678;50.058;8.306;2023-03-29T10:01:05;11.10;99.90
15156;DHT22;7678;50.058;8.306;2023-03-29T10:03:35;11.30;99.90
15156;DHT22;7678;50.058;8.306;2023-03-29T10:06:06;11.20;99.80
15156;DHT22;7678;50.058;8.306;2023-03-29T10:08:46;11.20;99.90
15156;DHT22;7678;50.058;8.306;2023-03-29T10:11:20;11.20;99.90
15156;DHT22;7678;50.058;8.306;2023-03-29T10:13:52;11.40;99.90
15156;DHT22;7678;50.058;8.306;2023-03-29T10:16:27;11.60;99.00
15156;DHT22;7678;50.058;8.306;2023-03-29T10:18:58;11.50;98.60
15156;DHT22;7678;50.058;8.306;2023-03-29T10:21:33;11.70;99.90
15156;DHT22;7678;50.058;8.306;2023-03-29T10:24:03;11.60;97.60
15156;DHT22;7678;50.058;8.306;2023-03-29T10:26:32;11.60;99.90
15156;DHT22;7678;50.058;8.306;2023-03-29T10:29:03;11.70;99.60
15156;DHT22;7678;50.058;8.306;2023-03-29T10:31:33;11.80;99.90
15156;DHT22;7678;50.058;8.306;2023-03-29T10:34:05;11.90;99.70
15156;DHT22;7678;50.058;8.306;2023-03-29T10:36:34;11.90;99.30
15156;DHT22;7678;50.058;8.306;2023-03-29T10:39:04;11.90;98.10
15156;DHT22;7678;50.058;8.306;2023-03-29T10:41:34;11.80;99.90
15156;DHT22;7678;50.058;8.306;2023-03-29T10:44:03;12.10;98.00
15156;DHT22;7678;50.058;8.306;2023-03-29T10:46:40;12.30;98.40
15156;DHT22;7678;50.058;8.306;2023-03-29T10:49:17;12.10;98.40
15156;DHT22;7678;50.058;8.306;2023-03-29T10:51:47;12.50;98.00
15156;DHT22;7678;50.058;8.306;2023-03-29T10:54:20;12.70;96.50
15156;DHT22;7678;50.058;8.306;2023-03-29T10:56:54;12.80;97.50
15156;DHT22;7678;50.058;8.306;2023-03-29T10:59:26;12.80;97.60
15156;DHT22;7678;50.058;8.306;2023-03-29T11:05:18;12.80;97.60
15156;DHT22;7678;50.058;8.306;2023-03-29T11:07:59;13.10;98.80
15156;DHT22;7678;50.058;8.306;2023-03-29T11:10:38;13.40;98.00
15156;DHT22;7678;50.058;8.306;2023-03-29T11:13:13;13.60;94.50
15156;DHT22;7678;50.058;8.306;2023-03-29T11:15:53;13.30;93.10
15156;DHT22;7678;50.058;8.306;2023-03-29T11:18:42;13.30;95.20
15156;DHT22;7678;50.058;8.306;2023-03-29T11:21:19;13.50;94.90
15156;DHT22;7678;50.058;8.306;2023-03-29T11:23:57;13.50;94.90
15156;DHT22;7678;50.058;8.306;2023-03-29T11:26:31;13.80;94.10
15156;DHT22;7678;50.058;8.306;2023-03-29T11:29:10;13.60;93.80
15156;DHT22;7678;50.058;8.306;2023-03-29T11:31:49;13.30;95.80
15156;DHT22;7678;50.058;8.306;2023-03-29T11:34:28;13.30;97.50
15156;DHT22;7678;50.058;8.306;2023-03-29T11:37:14;13.70;97.00
15156;DHT22;7678;50.058;8.306;2023-03-29T11:39:59;13.80;96.20
15156;DHT22;7678;50.058;8.306;2023-03-29T11:42:34;13.90;96.30
15156;DHT22;7678;50.058;8.306;2023-03-29T11:45:13;14.00;96.00
15156;DHT22;7678;50.058;8.306;2023-03-29T11:47:44;14.10;95.10
15156;DHT22;7678;50.058;8.306;2023-03-29T11:50:16;14.00;96.20
15156;DHT22;7678;50.058;8.306;2023-03-29T11:52:50;14.10;96.60
15156;DHT22;7678;50.058;8.306;2023-03-29T11:55:22;14.40;95.40
15156;DHT22;7678;50.058;8.306;2023-03-29T11:57:59;14.20;96.80
15156;DHT22;7678;50.058;8.306;2023-03-29T12:00:35;14.30;96.30
15156;DHT22;7678;50.058;8.306;2023-03-29T12:03:11;14.40;95.60
15156;DHT22;7678;50.058;8.306;2023-03-29T12:05:44;14.50;95.80
15156;DHT22;7678;50.058;8.306;2023-03-29T12:08:19;14.60;95.50
15156;DHT22;7678;50.058;8.306;2023-03-29T12:10:52;14.70;94.80
15156;DHT22;7678;50.058;8.306;2023-03-29T12:13:29;14.40;95.50
15156;DHT22;7678;50.058;8.306;2023-03-29T12:16:01;15.00;95.40
15156;DHT22;7678;50.058;8.306;2023-03-29T12:18:38;15.50;94.50
15156;DHT22;7678;50.058;8.306;2023-03-29T12:21:11;15.00;94.50
15156;DHT22;7678;50.058;8.306;2023-03-29T12:23:41;15.10;94.50
15156;DHT22;7678;50.058;8.306;2023-03-29T12:26:24;15.30;95.30
15156;DHT22;7678;50.058;8.306;2023-03-29T12:29:12;15.40;94.40
15156;DHT22;7678;50.058;8.306;2023-03-29T12:31:49;15.30;94.40
15156;DHT22;7678;50.058;8.306;2023-03-29T12:34:30;15.20;95.90
15156;DHT22;7678;50.058;8.306;2023-03-29T12:37:26;15.00;96.90
15156;DHT22;7678;50.058;8.306;2023-03-29T12:40:08;14.80;98.60
15156;DHT22;7678;50.058;8.306;2023-03-29T12:42:45;14.60;98.10
15156;DHT22;7678;50.058;8.306;2023-03-29T12:45:19;14.30;99.90
15156;DHT22;7678;50.058;8.306;2023-03-29T12:47:49;14.60;99.90
15156;DHT22;7678;50.058;8.306;2023-03-29T12:50:24;14.50;98.70
15156;DHT22;7678;50.058;8.306;2023-03-29T12:53:05;14.60;99.60
15156;DHT22;7678;50.058;8.306;2023-03-29T12:55:48;14.80;99.40
15156;DHT22;7678;50.058;8.306;2023-03-29T12:58:39;14.80;98.30
15156;DHT22;7678;50.058;8.306;2023-03-29T13:01:22;14.70;98.80
15156;DHT22;7678;50.058;8.306;2023-03-29T13:03:55;14.90;99.10
15156;DHT22;7678;50.058;8.306;2023-03-29T13:06:30;14.90;99.90
15156;DHT22;7678;50.058;8.306;2023-03-29T13:09:01;15.00;99.90
15156;DHT22;7678;50.058;8.306;2023-03-29T13:11:32;15.00;99.90
15156;DHT22;7678;50.058;8.306;2023-03-29T13:14:07;14.90;99.90
15156;DHT22;7678;50.058;8.306;2023-03-29T13:16:40;15.00;99.90
15156;DHT22;7678;50.058;8.306;2023-03-29T13:19:24;15.00;99.90
15156;DHT22;7678;50.058;8.306;2023-03-29T13:22:03;15.00;99.90
15156;DHT22;7678;50.058;8.306;2023-03-29T13:24:50;15.10;99.90
15156;DHT22;7678;50.058;8.306;2023-03-29T13:27:30;15.10;99.90
15156;DHT22;7678;50.058;8.306;2023-03-29T13:30:13;15.20;99.90
15156;DHT22;7678;50.058;8.306;2023-03-29T13:35:44;15.40;99.90
15156;DHT22;7678;50.058;8.306;2023-03-29T13:38:18;15.50;99.90
15156;DHT22;7678;50.058;8.306;2023-03-29T13:41:01;15.50;99.70
15156;DHT22;7678;50.058;8.306;2023-03-29T13:43:32;15.30;99.90
15156;DHT22;7678;50.058;8.306;2023-03-29T13:46:19;15.40;99.90
15156;DHT22;7678;50.058;8.306;2023-03-29T13:48:57;15.30;99.90
15156;DHT22;7678;50.058;8.306;2023-03-29T13:51:33;15.40;99.90
15156;DHT22;7678;50.058;8.306;2023-03-29T13:54:06;15.40;99.90
15156;DHT22;7678;50.058;8.306;2023-03-29T13:56:42;15.30;99.90
15156;DHT22;7678;50.058;8.306;2023-03-29T13:59:19;15.30;99.90
15156;DHT22;7678;50.058;8.306;2023-03-29T14:01:50;15.50;98.60
15156;DHT22;7678;50.058;8.306;2023-03-29T14:04:27;15.50;99.50
15156;DHT22;7678;50.058;8.306;2023-03-29T14:06:57;15.80;99.00
15156;DHT22;7678;50.058;8.306;2023-03-29T14:09:29;16.20;97.60
15156;DHT22;7678;50.058;8.306;2023-03-29T14:11:59;16.30;94.40
15156;DHT22;7678;50.058;8.306;2023-03-29T14:14:29;16.20;95.30
15156;DHT22;7678;50.058;8.306;2023-03-29T14:16:59;15.70;94.90
15156;DHT22;7678;50.058;8.306;2023-03-29T14:19:34;15.90;97.10
15156;DHT22;7678;50.058;8.306;2023-03-29T14:22:07;15.80;94.90
15156;DHT22;7678;50.058;8.306;2023-03-29T14:24:38;15.70;97.40
15156;DHT22;7678;50.058;8.306;2023-03-29T14:27:10;15.70;96.20
15156;DHT22;7678;50.058;8.306;2023-03-29T14:29:39;15.70;97.10
15156;DHT22;7678;50.058;8.306;2023-03-29T14:32:08;15.90;97.10
15156;DHT22;7678;50.058;8.306;2023-03-29T14:34:39;16.20;93.80
15156;DHT22;7678;50.058;8.306;2023-03-29T14:37:09;16.30;92.80
15156;DHT22;7678;50.058;8.306;2023-03-29T14:39:39;16.20;90.20
15156;DHT22;7678;50.058;8.306;2023-03-29T14:42:13;16.00;89.60
15156;DHT22;7678;50.058;8.306;2023-03-29T14:44:43;16.00;91.90
15156;DHT22;7678;50.058;8.306;2023-03-29T14:47:24;15.90;92.00
15156;DHT22;7678;50.058;8.306;2023-03-29T14:49:55;15.90;90.40
15156;DHT22;7678;50.058;8.306;2023-03-29T14:52:26;15.90;90.20
15156;DHT22;7678;50.058;8.306;2023-03-29T14:54:59;16.00;90.40
15156;DHT22;7678;50.058;8.306;2023-03-29T14:57:33;16.30;90.30
15156;DHT22;7678;50.058;8.306;2023-03-29T15:00:17;16.30;89.60
15156;DHT22;7678;50.058;8.306;2023-03-29T15:02:49;16.40;88.50
15156;DHT22;7678;50.058;8.306;2023-03-29T15:05:31;16.60;85.10
15156;DHT22;7678;50.058;8.306;2023-03-29T15:08:00;16.70;84.60
15156;DHT22;7678;50.058;8.306;2023-03-29T15:10:31;16.60;85.20
15156;DHT22;7678;50.058;8.306;2023-03-29T15:13:01;16.60;85.60
15156;DHT22;7678;50.058;8.306;2023-03-29T15:15:35;16.80;87.00
15156;DHT22;7678;50.058;8.306;2023-03-29T15:18:06;16.80;84.30
15156;DHT22;7678;50.058;8.306;2023-03-29T15:20:39;16.80;86.40
15156;DHT22;7678;50.058;8.306;2023-03-29T15:23:19;16.90;86.90
15156;DHT22;7678;50.058;8.306;2023-03-29T15:25:52;16.90;85.50
15156;DHT22;7678;50.058;8.306;2023-03-29T15:28:28;16.80;84.30
15156;DHT22;7678;50.058;8.306;2023-03-29T15:31:00;16.60;87.50
15156;DHT22;7678;50.058;8.306;2023-03-29T15:33:36;16.60;89.10
15156;DHT22;7678;50.058;8.306;2023-03-29T15:36:09;16.30;88.60
15156;DHT22;7678;50.058;8.306;2023-03-29T15:38:47;16.10;90.70
15156;DHT22;7678;50.058;8.306;2023-03-29T15:41:16;16.10;90.80
15156;DHT22;7678;50.058;8.306;2023-03-29T15:43:45;16.00;92.20
15156;DHT22;7678;50.058;8.306;2023-03-29T15:46:13;16.00;92.70
15156;DHT22;7678;50.058;8.306;2023-03-29T15:48:42;15.90;92.60
15156;DHT22;7678;50.058;8.306;2023-03-29T15:51:12;15.80;93.20
15156;DHT22;7678;50.058;8.306;2023-03-29T15:53:40;15.80;93.40
15156;DHT22;7678;50.058;8.306;2023-03-29T15:56:14;15.80;93.50
15156;DHT22;7678;50.058;8.306;2023-03-29T15:58:47;15.90;93.70
15156;DHT22;7678;50.058;8.306;2023-03-29T16:01:21;15.80;94.40
15156;DHT22;7678;50.058;8.306;2023-03-29T16:04:00;15.90;94.00
15156;DHT22;7678;50.058;8.306;2023-03-29T16:06:29;15.90;94.00
15156;DHT22;7678;50.058;8.306;2023-03-29T16:08:58;15.90;95.10
15156;DHT22;7678;50.058;8.306;2023-03-29T16:11:26;15.70;95.80
15156;DHT22;7678;50.058;8.306;2023-03-29T16:13:55;15.60;95.40
15156;DHT22;7678;50.058;8.306;2023-03-29T16:16:24;15.70;96.90
15156;DHT22;7678;50.058;8.306;2023-03-29T16:18:53;15.80;96.40
15156;DHT22;7678;50.058;8.306;2023-03-29T16:21:21;15.80;97.30
15156;DHT22;7678;50.058;8.306;2023-03-29T16:23:52;15.80;96.90
15156;DHT22;7678;50.058;8.306;2023-03-29T16:26:20;15.70;97.10
15156;DHT22;7678;50.058;8.306;2023-03-29T16:28:48;15.60;98.90
15156;DHT22;7678;50.058;8.306;2023-03-29T16:31:18;15.60;97.10